sensor_id;sensor_type;location;lat;lon;timestamp;P1;durP1;ratioP1;P2;durP2;ratioP2
966;SDS011;56108;48.730;9.304;2022-12-10T00:00:21;41.63;;;30.27;;
966;SDS011;56108;48.730;9.304;2022-12-10T00:02:28;40.42;;;31.58;;
966;SDS011;56108;48.730;9.304;2022-12-10T00:04:36;41.83;;;29.63;;
966;SDS011;56108;48.730;9.304;2022-12-10T00:06:51;43.92;;;30.80;;
966;SDS011;56108;48.730;9.304;2022-12-10T00:08:59;40.97;;;29.95;;
966;SDS011;56108;48.730;9.304;2022-12-10T00:11:11;45.28;;;31.77;;
966;SDS011;56108;48.730;9.304;2022-12-10T00:13:20;47.75;;;34.97;;
966;SDS011;56108;48.730;9.304;2022-12-10T00:15:28;42.00;;;31.48;;
966;SDS011;56108;48.730;9.304;2022-12-10T00:17:36;42.22;;;30.20;;
966;SDS011;56108;48.730;9.304;2022-12-10T00:19:44;42.38;;;32.58;;
966;SDS011;56108;48.730;9.304;2022-12-10T00:21:53;42.85;;;31.52;;
966;SDS011;56108;48.730;9.304;2022-12-10T00:24:01;45.00;;;32.80;;
966;SDS011;56108;48.730;9.304;2022-12-10T00:26:15;45.08;;;33.65;;
966;SDS011;56108;48.730;9.304;2022-12-10T00:28:24;43.10;;;32.10;;
966;SDS011;56108;48.730;9.304;2022-12-10T00:30:33;46.78;;;33.53;;
966;SDS011;56108;48.730;9.304;2022-12-10T00:32:41;43.40;;;31.35;;
966;SDS011;56108;48.730;9.304;2022-12-10T00:34:50;42.17;;;29.27;;
966;SDS011;56108;48.730;9.304;2022-12-10T00:36:59;44.75;;;33.30;;
966;SDS011;56108;48.730;9.304;2022-12-10T00:39:07;42.90;;;31.13;;
966;SDS011;56108;48.730;9.304;2022-12-10T00:41:18;43.72;;;32.63;;
966;SDS011;56108;48.730;9.304;2022-12-10T00:43:28;41.25;;;30.80;;
966;SDS011;56108;48.730;9.304;2022-12-10T00:45:35;41.25;;;30.83;;
966;SDS011;56108;48.730;9.304;2022-12-10T00:47:44;42.03;;;31.33;;
966;SDS011;56108;48.730;9.304;2022-12-10T00:49:53;41.38;;;31.70;;
966;SDS011;56108;48.730;9.304;2022-12-10T00:52:01;43.00;;;32.28;;
966;SDS011;56108;48.730;9.304;2022-12-10T00:54:10;41.05;;;30.02;;
966;SDS011;56108;48.730;9.304;2022-12-10T00:56:21;41.38;;;32.10;;
966;SDS011;56108;48.730;9.304;2022-12-10T00:58:31;43.08;;;32.58;;
966;SDS011;56108;48.730;9.304;2022-12-10T01:00:40;43.53;;;33.55;;
966;SDS011;56108;48.730;9.304;2022-12-10T01:02:48;42.42;;;33.35;;
966;SDS011;56108;48.730;9.304;2022-12-10T01:04:56;45.67;;;31.42;;
966;SDS011;56108;48.730;9.304;2022-12-10T01:07:04;43.15;;;33.67;;
966;SDS011;56108;48.730;9.304;2022-12-10T01:09:16;41.72;;;30.48;;
966;SDS011;56108;48.730;9.304;2022-12-10T01:11:33;43.40;;;31.13;;
966;SDS011;56108;48.730;9.304;2022-12-10T01:13:43;39.47;;;30.17;;
966;SDS011;56108;48.730;9.304;2022-12-10T01:15:53;44.35;;;31.20;;
966;SDS011;56108;48.730;9.304;2022-12-10T01:18:01;39.50;;;31.10;;
966;SDS011;56108;48.730;9.304;2022-12-10T01:20:10;46.45;;;32.97;;
966;SDS011;56108;48.730;9.304;2022-12-10T01:22:20;40.30;;;31.85;;
966;SDS011;56108;48.730;9.304;2022-12-10T01:24:28;43.55;;;32.63;;
966;SDS011;56108;48.730;9.304;2022-12-10T01:26:39;41.10;;;31.58;;
966;SDS011;56108;48.730;9.304;2022-12-10T01:28:47;44.70;;;33.20;;
966;SDS011;56108;48.730;9.304;2022-12-10T01:30:59;45.42;;;33.88;;
966;SDS011;56108;48.730;9.304;2022-12-10T01:33:08;39.55;;;30.85;;
966;SDS011;56108;48.730;9.304;2022-12-10T01:35:17;38.38;;;31.23;;
966;SDS011;56108;48.730;9.304;2022-12-10T01:37:25;40.90;;;31.52;;
966;SDS011;56108;48.730;9.304;2022-12-10T01:39:34;40.97;;;31.17;;
966;SDS011;56108;48.730;9.304;2022-12-10T01:41:45;40.15;;;30.55;;
966;SDS011;56108;48.730;9.304;2022-12-10T01:43:56;37.85;;;29.45;;
966;SDS011;56108;48.730;9.304;2022-12-10T01:46:05;40.33;;;31.05;;
966;SDS011;56108;48.730;9.304;2022-12-10T01:48:14;42.67;;;31.10;;
966;SDS011;56108;48.730;9.304;2022-12-10T01:50:23;39.88;;;30.92;;
966;SDS011;56108;48.730;9.304;2022-12-10T01:52:32;39.70;;;31.15;;
966;SDS011;56108;48.730;9.304;2022-12-10T01:54:42;42.60;;;33.38;;
966;SDS011;56108;48.730;9.304;2022-12-10T01:56:54;41.28;;;31.30;;
966;SDS011;56108;48.730;9.304;2022-12-10T01:59:06;37.47;;;30.25;;
966;SDS011;56108;48.730;9.304;2022-12-10T02:01:16;39.83;;;30.05;;
966;SDS011;56108;48.730;9.304;2022-12-10T02:03:35;44.28;;;31.45;;
966;SDS011;56108;48.730;9.304;2022-12-10T02:05:50;40.80;;;31.00;;
966;SDS011;56108;48.730;9.304;2022-12-10T02:08:05;40.50;;;30.38;;
966;SDS011;56108;48.730;9.304;2022-12-10T02:10:23;36.60;;;28.25;;
966;SDS011;56108;48.730;9.304;2022-12-10T02:12:41;40.97;;;31.10;;
966;SDS011;56108;48.730;9.304;2022-12-10T02:14:55;38.40;;;31.05;;
966;SDS011;56108;48.730;9.304;2022-12-10T02:17:07;41.75;;;31.85;;
966;SDS011;56108;48.730;9.304;2022-12-10T02:19:32;41.67;;;31.38;;
966;SDS011;56108;48.730;9.304;2022-12-10T02:21:49;42.30;;;31.08;;
966;SDS011;56108;48.730;9.304;2022-12-10T02:24:03;39.03;;;29.13;;
966;SDS011;56108;48.730;9.304;2022-12-10T02:26:16;43.60;;;31.23;;
966;SDS011;56108;48.730;9.304;2022-12-10T02:28:33;40.08;;;30.85;;
966;SDS011;56108;48.730;9.304;2022-12-10T02:30:50;39.00;;;31.73;;
966;SDS011;56108;48.730;9.304;2022-12-10T02:33:02;39.63;;;31.70;;
966;SDS011;56108;48.730;9.304;2022-12-10T02:35:14;36.30;;;29.40;;
966;SDS011;56108;48.730;9.304;2022-12-10T02:37:28;39.72;;;30.10;;
966;SDS011;56108;48.730;9.304;2022-12-10T02:39:42;42.70;;;31.80;;
966;SDS011;56108;48.730;9.304;2022-12-10T02:41:55;39.10;;;30.67;;
966;SDS011;56108;48.730;9.304;2022-12-10T02:44:09;40.20;;;29.77;;
966;SDS011;56108;48.730;9.304;2022-12-10T02:46:24;44.38;;;33.38;;
966;SDS011;56108;48.730;9.304;2022-12-10T02:48:37;36.67;;;30.17;;
966;SDS011;56108;48.730;9.304;2022-12-10T02:50:48;40.20;;;31.45;;
966;SDS011;56108;48.730;9.304;2022-12-10T02:52:56;38.60;;;29.85;;
966;SDS011;56108;48.730;9.304;2022-12-10T02:55:04;39.40;;;30.55;;
966;SDS011;56108;48.730;9.304;2022-12-10T02:59:53;43.20;;;31.95;;
966;SDS011;56108;48.730;9.304;2022-12-10T03:02:22;38.10;;;30.85;;
966;SDS011;56108;48.730;9.304;2022-12-10T03:04:37;39.25;;;32.42;;
966;SDS011;56108;48.730;9.304;2022-12-10T03:06:55;42.40;;;31.85;;
966;SDS011;56108;48.730;9.304;2022-12-10T03:09:11;39.15;;;30.00;;
966;SDS011;56108;48.730;9.304;2022-12-10T03:11:24;39.85;;;30.17;;
966;SDS011;56108;48.730;9.304;2022-12-10T03:13:35;39.67;;;30.40;;
966;SDS011;56108;48.730;9.304;2022-12-10T03:15:46;42.40;;;31.23;;
966;SDS011;56108;48.730;9.304;2022-12-10T03:17:59;38.13;;;28.83;;
966;SDS011;56108;48.730;9.304;2022-12-10T03:20:13;37.08;;;28.88;;
966;SDS011;56108;48.730;9.304;2022-12-10T03:22:23;41.30;;;30.48;;
966;SDS011;56108;48.730;9.304;2022-12-10T03:24:32;38.47;;;31.08;;
966;SDS011;56108;48.730;9.304;2022-12-10T03:26:42;36.65;;;28.55;;
966;SDS011;56108;48.730;9.304;2022-12-10T03:28:55;36.78;;;28.98;;
966;SDS011;56108;48.730;9.304;2022-12-10T03:31:09;35.58;;;28.05;;
966;SDS011;56108;48.730;9.304;2022-12-10T03:33:23;37.10;;;29.13;;
966;SDS011;56108;48.730;9.304;2022-12-10T03:35:31;39.30;;;29.15;;
966;SDS011;56108;48.730;9.304;2022-12-10T03:37:40;41.85;;;30.30;;
966;SDS011;56108;48.730;9.304;2022-12-10T03:39:48;36.65;;;29.02;;
966;SDS011;56108;48.730;9.304;2022-12-10T03:41:56;39.60;;;30.95;;
966;SDS011;56108;48.730;9.304;2022-12-10T03:44:05;39.45;;;28.85;;
966;SDS011;56108;48.730;9.304;2022-12-10T03:46:14;40.85;;;28.80;;
966;SDS011;56108;48.730;9.304;2022-12-10T03:48:25;37.42;;;29.33;;
966;SDS011;56108;48.730;9.304;2022-12-10T03:50:33;39.15;;;29.45;;
966;SDS011;56108;48.730;9.304;2022-12-10T03:52:41;40.63;;;29.20;;
966;SDS011;56108;48.730;9.304;2022-12-10T03:54:49;41.10;;;29.45;;
966;SDS011;56108;48.730;9.304;2022-12-10T03:56:56;36.25;;;28.30;;
966;SDS011;56108;48.730;9.304;2022-12-10T03:59:04;40.22;;;30.48;;
966;SDS011;56108;48.730;9.304;2022-12-10T04:01:12;39.78;;;29.70;;
966;SDS011;56108;48.730;9.304;2022-12-10T04:03:21;40.42;;;31.90;;
966;SDS011;56108;48.730;9.304;2022-12-10T04:05:31;34.00;;;27.60;;
966;SDS011;56108;48.730;9.304;2022-12-10T04:07:39;36.53;;;28.45;;
966;SDS011;56108;48.730;9.304;2022-12-10T04:09:48;42.53;;;29.48;;
966;SDS011;56108;48.730;9.304;2022-12-10T04:11:56;37.10;;;27.70;;
966;SDS011;56108;48.730;9.304;2022-12-10T04:14:05;38.08;;;27.90;;
966;SDS011;56108;48.730;9.304;2022-12-10T04:16:28;37.38;;;29.05;;
966;SDS011;56108;48.730;9.304;2022-12-10T04:18:35;39.30;;;28.48;;
966;SDS011;56108;48.730;9.304;2022-12-10T04:20:46;33.55;;;27.20;;
966;SDS011;56108;48.730;9.304;2022-12-10T04:23:07;38.00;;;28.52;;
966;SDS011;56108;48.730;9.304;2022-12-10T04:25:28;36.45;;;27.63;;
966;SDS011;56108;48.730;9.304;2022-12-10T04:27:48;35.35;;;28.23;;
966;SDS011;56108;48.730;9.304;2022-12-10T04:29:56;38.85;;;28.45;;
966;SDS011;56108;48.730;9.304;2022-12-10T04:32:05;37.00;;;29.95;;
966;SDS011;56108;48.730;9.304;2022-12-10T04:34:13;37.10;;;28.10;;
966;SDS011;56108;48.730;9.304;2022-12-10T04:36:24;34.13;;;27.60;;
966;SDS011;56108;48.730;9.304;2022-12-10T04:38:32;35.40;;;28.23;;
966;SDS011;56108;48.730;9.304;2022-12-10T04:40:40;33.80;;;27.30;;
966;SDS011;56108;48.730;9.304;2022-12-10T04:42:49;35.00;;;27.52;;
966;SDS011;56108;48.730;9.304;2022-12-10T04:44:57;35.67;;;27.55;;
966;SDS011;56108;48.730;9.304;2022-12-10T04:47:05;37.80;;;29.08;;
966;SDS011;56108;48.730;9.304;2022-12-10T04:49:15;33.53;;;26.83;;
966;SDS011;56108;48.730;9.304;2022-12-10T04:51:25;36.22;;;26.92;;
966;SDS011;56108;48.730;9.304;2022-12-10T04:53:34;34.05;;;27.13;;
966;SDS011;56108;48.730;9.304;2022-12-10T04:55:42;37.28;;;28.35;;
966;SDS011;56108;48.730;9.304;2022-12-10T04:57:51;35.22;;;27.52;;
966;SDS011;56108;48.730;9.304;2022-12-10T04:59:59;36.08;;;26.88;;
966;SDS011;56108;48.730;9.304;2022-12-10T05:02:07;35.15;;;26.67;;
966;SDS011;56108;48.730;9.304;2022-12-10T05:04:16;34.35;;;27.90;;
966;SDS011;56108;48.730;9.304;2022-12-10T05:06:27;38.42;;;29.27;;
966;SDS011;56108;48.730;9.304;2022-12-10T05:08:35;34.60;;;28.10;;
966;SDS011;56108;48.730;9.304;2022-12-10T05:10:45;35.30;;;28.08;;
966;SDS011;56108;48.730;9.304;2022-12-10T05:12:53;35.03;;;27.33;;
966;SDS011;56108;48.730;9.304;2022-12-10T05:15:01;32.20;;;25.77;;
966;SDS011;56108;48.730;9.304;2022-12-10T05:17:10;32.92;;;26.98;;
966;SDS011;56108;48.730;9.304;2022-12-10T05:19:18;37.13;;;27.83;;
966;SDS011;56108;48.730;9.304;2022-12-10T05:21:30;37.15;;;28.70;;
966;SDS011;56108;48.730;9.304;2022-12-10T05:23:51;38.67;;;27.35;;
966;SDS011;56108;48.730;9.304;2022-12-10T05:26:00;35.88;;;27.50;;
966;SDS011;56108;48.730;9.304;2022-12-10T05:28:09;31.88;;;26.30;;
966;SDS011;56108;48.730;9.304;2022-12-10T05:30:18;33.42;;;28.00;;
966;SDS011;56108;48.730;9.304;2022-12-10T05:32:26;31.98;;;25.50;;
966;SDS011;56108;48.730;9.304;2022-12-10T05:34:34;33.70;;;26.00;;
966;SDS011;56108;48.730;9.304;2022-12-10T05:36:45;33.17;;;25.17;;
966;SDS011;56108;48.730;9.304;2022-12-10T05:38:55;35.05;;;26.70;;
966;SDS011;56108;48.730;9.304;2022-12-10T05:41:05;35.90;;;25.98;;
966;SDS011;56108;48.730;9.304;2022-12-10T05:43:15;34.00;;;27.15;;
966;SDS011;56108;48.730;9.304;2022-12-10T05:45:23;33.65;;;25.67;;
966;SDS011;56108;48.730;9.304;2022-12-10T05:47:33;35.30;;;26.58;;
966;SDS011;56108;48.730;9.304;2022-12-10T05:49:40;32.80;;;27.38;;
966;SDS011;56108;48.730;9.304;2022-12-10T05:51:58;35.50;;;27.05;;
966;SDS011;56108;48.730;9.304;2022-12-10T05:54:06;34.70;;;25.45;;
966;SDS011;56108;48.730;9.304;2022-12-10T05:56:15;32.88;;;26.27;;
966;SDS011;56108;48.730;9.304;2022-12-10T05:58:26;31.02;;;25.60;;
966;SDS011;56108;48.730;9.304;2022-12-10T06:00:34;37.20;;;25.80;;
966;SDS011;56108;48.730;9.304;2022-12-10T06:02:42;33.63;;;26.83;;
966;SDS011;56108;48.730;9.304;2022-12-10T06:04:50;37.00;;;27.38;;
966;SDS011;56108;48.730;9.304;2022-12-10T06:07:01;29.83;;;23.88;;
966;SDS011;56108;48.730;9.304;2022-12-10T06:09:14;33.63;;;26.52;;
966;SDS011;56108;48.730;9.304;2022-12-10T06:11:24;30.65;;;24.77;;
966;SDS011;56108;48.730;9.304;2022-12-10T06:13:37;31.98;;;26.05;;
966;SDS011;56108;48.730;9.304;2022-12-10T06:15:45;30.85;;;25.13;;
966;SDS011;56108;48.730;9.304;2022-12-10T06:17:54;32.70;;;25.10;;
966;SDS011;56108;48.730;9.304;2022-12-10T06:20:05;34.60;;;26.35;;
966;SDS011;56108;48.730;9.304;2022-12-10T06:22:17;31.40;;;24.63;;
966;SDS011;56108;48.730;9.304;2022-12-10T06:24:26;31.15;;;25.33;;
966;SDS011;56108;48.730;9.304;2022-12-10T06:26:35;33.88;;;26.98;;
966;SDS011;56108;48.730;9.304;2022-12-10T06:28:44;35.38;;;27.55;;
966;SDS011;56108;48.730;9.304;2022-12-10T06:30:53;34.67;;;27.85;;
966;SDS011;56108;48.730;9.304;2022-12-10T06:33:01;33.72;;;26.70;;
966;SDS011;56108;48.730;9.304;2022-12-10T06:35:09;33.58;;;26.50;;
966;SDS011;56108;48.730;9.304;2022-12-10T06:37:21;37.55;;;27.20;;
966;SDS011;56108;48.730;9.304;2022-12-10T06:39:30;33.10;;;26.33;;
966;SDS011;56108;48.730;9.304;2022-12-10T06:41:39;33.58;;;25.30;;
966;SDS011;56108;48.730;9.304;2022-12-10T06:43:49;36.47;;;27.08;;
966;SDS011;56108;48.730;9.304;2022-12-10T06:45:58;36.80;;;27.25;;
966;SDS011;56108;48.730;9.304;2022-12-10T06:48:06;31.98;;;26.60;;
966;SDS011;56108;48.730;9.304;2022-12-10T06:50:15;34.08;;;26.65;;
966;SDS011;56108;48.730;9.304;2022-12-10T06:52:26;43.58;;;28.50;;
966;SDS011;56108;48.730;9.304;2022-12-10T06:54:35;36.33;;;28.70;;
966;SDS011;56108;48.730;9.304;2022-12-10T06:56:43;38.17;;;27.90;;
966;SDS011;56108;48.730;9.304;2022-12-10T06:58:52;34.65;;;25.65;;
966;SDS011;56108;48.730;9.304;2022-12-10T07:01:03;35.20;;;27.55;;
966;SDS011;56108;48.730;9.304;2022-12-10T07:03:12;37.25;;;26.63;;
966;SDS011;56108;48.730;9.304;2022-12-10T07:05:20;33.53;;;25.42;;
966;SDS011;56108;48.730;9.304;2022-12-10T07:07:31;37.15;;;27.13;;
966;SDS011;56108;48.730;9.304;2022-12-10T07:09:39;32.72;;;26.38;;
966;SDS011;56108;48.730;9.304;2022-12-10T07:11:47;37.95;;;26.92;;
966;SDS011;56108;48.730;9.304;2022-12-10T07:13:55;37.47;;;26.55;;
966;SDS011;56108;48.730;9.304;2022-12-10T07:16:11;36.50;;;26.83;;
966;SDS011;56108;48.730;9.304;2022-12-10T07:18:19;31.83;;;25.67;;
966;SDS011;56108;48.730;9.304;2022-12-10T07:20:29;37.50;;;27.00;;
966;SDS011;56108;48.730;9.304;2022-12-10T07:22:40;36.60;;;27.42;;
966;SDS011;56108;48.730;9.304;2022-12-10T07:24:48;33.60;;;27.45;;
966;SDS011;56108;48.730;9.304;2022-12-10T07:26:56;35.42;;;26.90;;
966;SDS011;56108;48.730;9.304;2022-12-10T07:29:06;33.40;;;26.98;;
966;SDS011;56108;48.730;9.304;2022-12-10T07:31:16;34.83;;;26.27;;
966;SDS011;56108;48.730;9.304;2022-12-10T07:33:25;37.28;;;26.30;;
966;SDS011;56108;48.730;9.304;2022-12-10T07:35:32;33.30;;;25.80;;
966;SDS011;56108;48.730;9.304;2022-12-10T07:37:43;33.72;;;27.38;;
966;SDS011;56108;48.730;9.304;2022-12-10T07:39:51;34.15;;;28.50;;
966;SDS011;56108;48.730;9.304;2022-12-10T07:42:00;35.45;;;26.88;;
966;SDS011;56108;48.730;9.304;2022-12-10T07:44:09;38.10;;;26.80;;
966;SDS011;56108;48.730;9.304;2022-12-10T07:46:19;35.85;;;26.55;;
966;SDS011;56108;48.730;9.304;2022-12-10T07:48:29;32.05;;;25.60;;
966;SDS011;56108;48.730;9.304;2022-12-10T07:50:37;37.40;;;27.10;;
966;SDS011;56108;48.730;9.304;2022-12-10T07:52:47;36.55;;;27.52;;
966;SDS011;56108;48.730;9.304;2022-12-10T07:54:55;37.03;;;27.25;;
966;SDS011;56108;48.730;9.304;2022-12-10T07:57:03;37.45;;;27.30;;
966;SDS011;56108;48.730;9.304;2022-12-10T07:59:12;33.97;;;26.98;;
966;SDS011;56108;48.730;9.304;2022-12-10T08:01:20;34.38;;;27.23;;
966;SDS011;56108;48.730;9.304;2022-12-10T08:03:30;33.67;;;25.00;;
966;SDS011;56108;48.730;9.304;2022-12-10T08:05:38;30.77;;;24.50;;
966;SDS011;56108;48.730;9.304;2022-12-10T08:07:49;30.83;;;24.38;;
966;SDS011;56108;48.730;9.304;2022-12-10T08:10:05;35.97;;;26.88;;
966;SDS011;56108;48.730;9.304;2022-12-10T08:12:14;34.03;;;25.48;;
966;SDS011;56108;48.730;9.304;2022-12-10T08:14:22;33.92;;;24.67;;
966;SDS011;56108;48.730;9.304;2022-12-10T08:16:32;35.05;;;25.65;;
966;SDS011;56108;48.730;9.304;2022-12-10T08:18:40;33.60;;;25.63;;
966;SDS011;56108;48.730;9.304;2022-12-10T08:20:48;31.23;;;25.58;;
966;SDS011;56108;48.730;9.304;2022-12-10T08:22:59;35.80;;;27.15;;
966;SDS011;56108;48.730;9.304;2022-12-10T08:25:07;32.97;;;26.58;;
966;SDS011;56108;48.730;9.304;2022-12-10T08:27:15;36.40;;;27.13;;
966;SDS011;56108;48.730;9.304;2022-12-10T08:29:23;35.40;;;26.77;;
966;SDS011;56108;48.730;9.304;2022-12-10T08:31:32;36.47;;;26.73;;
966;SDS011;56108;48.730;9.304;2022-12-10T08:33:41;36.75;;;26.92;;
966;SDS011;56108;48.730;9.304;2022-12-10T08:35:49;33.15;;;25.27;;
966;SDS011;56108;48.730;9.304;2022-12-10T08:38:00;35.40;;;27.35;;
966;SDS011;56108;48.730;9.304;2022-12-10T08:40:09;33.00;;;25.90;;
966;SDS011;56108;48.730;9.304;2022-12-10T08:42:18;35.08;;;26.63;;
966;SDS011;56108;48.730;9.304;2022-12-10T08:44:25;31.00;;;25.42;;
966;SDS011;56108;48.730;9.304;2022-12-10T08:46:34;32.92;;;27.10;;
966;SDS011;56108;48.730;9.304;2022-12-10T08:48:42;29.20;;;25.15;;
966;SDS011;56108;48.730;9.304;2022-12-10T08:50:51;33.63;;;26.38;;
966;SDS011;56108;48.730;9.304;2022-12-10T08:53:01;32.13;;;25.77;;
966;SDS011;56108;48.730;9.304;2022-12-10T08:55:11;35.70;;;26.00;;
966;SDS011;56108;48.730;9.304;2022-12-10T08:57:20;29.35;;;25.27;;
966;SDS011;56108;48.730;9.304;2022-12-10T08:59:28;31.27;;;25.13;;
966;SDS011;56108;48.730;9.304;2022-12-10T09:01:36;33.88;;;25.33;;
966;SDS011;56108;48.730;9.304;2022-12-10T09:03:44;35.03;;;24.80;;
966;SDS011;56108;48.730;9.304;2022-12-10T09:05:54;31.20;;;24.45;;
966;SDS011;56108;48.730;9.304;2022-12-10T09:08:05;33.22;;;24.88;;
966;SDS011;56108;48.730;9.304;2022-12-10T09:10:13;28.38;;;24.85;;
966;SDS011;56108;48.730;9.304;2022-12-10T09:12:21;31.77;;;25.65;;
966;SDS011;56108;48.730;9.304;2022-12-10T09:14:30;36.40;;;27.10;;
966;SDS011;56108;48.730;9.304;2022-12-10T09:16:39;31.10;;;23.73;;
966;SDS011;56108;48.730;9.304;2022-12-10T09:18:47;30.33;;;24.60;;
966;SDS011;56108;48.730;9.304;2022-12-10T09:20:57;33.95;;;27.02;;
966;SDS011;56108;48.730;9.304;2022-12-10T09:23:11;34.25;;;26.88;;
966;SDS011;56108;48.730;9.304;2022-12-10T09:25:19;34.85;;;25.92;;
966;SDS011;56108;48.730;9.304;2022-12-10T09:27:27;29.48;;;25.15;;
966;SDS011;56108;48.730;9.304;2022-12-10T09:29:35;32.20;;;25.65;;
966;SDS011;56108;48.730;9.304;2022-12-10T09:31:44;31.88;;;24.23;;
966;SDS011;56108;48.730;9.304;2022-12-10T09:33:52;31.75;;;26.30;;
966;SDS011;56108;48.730;9.304;2022-12-10T09:36:02;32.28;;;24.88;;
966;SDS011;56108;48.730;9.304;2022-12-10T09:38:14;30.65;;;24.25;;
966;SDS011;56108;48.730;9.304;2022-12-10T09:40:23;29.92;;;24.20;;
966;SDS011;56108;48.730;9.304;2022-12-10T09:42:43;31.95;;;25.50;;
966;SDS011;56108;48.730;9.304;2022-12-10T09:45:00;28.50;;;22.95;;
966;SDS011;56108;48.730;9.304;2022-12-10T09:47:12;33.25;;;26.67;;
966;SDS011;56108;48.730;9.304;2022-12-10T09:49:23;30.30;;;26.38;;
966;SDS011;56108;48.730;9.304;2022-12-10T09:51:40;31.38;;;24.30;;
966;SDS011;56108;48.730;9.304;2022-12-10T09:53:51;33.65;;;25.80;;
966;SDS011;56108;48.730;9.304;2022-12-10T09:56:03;32.33;;;25.27;;
966;SDS011;56108;48.730;9.304;2022-12-10T09:58:13;29.95;;;24.85;;
966;SDS011;56108;48.730;9.304;2022-12-10T10:00:34;30.02;;;25.13;;
966;SDS011;56108;48.730;9.304;2022-12-10T10:02:44;32.85;;;24.73;;
966;SDS011;56108;48.730;9.304;2022-12-10T10:04:54;33.28;;;25.33;;
966;SDS011;56108;48.730;9.304;2022-12-10T10:07:19;32.95;;;27.02;;
966;SDS011;56108;48.730;9.304;2022-12-10T10:09:32;32.78;;;25.55;;
966;SDS011;56108;48.730;9.304;2022-12-10T10:11:47;27.75;;;23.63;;
966;SDS011;56108;48.730;9.304;2022-12-10T10:13:56;29.27;;;25.63;;
966;SDS011;56108;48.730;9.304;2022-12-10T10:16:22;32.60;;;24.60;;
966;SDS011;56108;48.730;9.304;2022-12-10T10:18:34;31.60;;;24.88;;
966;SDS011;56108;48.730;9.304;2022-12-10T10:20:47;29.88;;;23.90;;
966;SDS011;56108;48.730;9.304;2022-12-10T10:22:56;32.58;;;26.33;;
966;SDS011;56108;48.730;9.304;2022-12-10T10:25:12;33.67;;;26.20;;
966;SDS011;56108;48.730;9.304;2022-12-10T10:27:22;33.45;;;26.42;;
966;SDS011;56108;48.730;9.304;2022-12-10T10:29:37;33.92;;;25.40;;
966;SDS011;56108;48.730;9.304;2022-12-10T10:31:45;33.90;;;26.30;;
966;SDS011;56108;48.730;9.304;2022-12-10T10:33:56;30.38;;;26.20;;
966;SDS011;56108;48.730;9.304;2022-12-10T10:36:07;33.47;;;26.65;;
966;SDS011;56108;48.730;9.304;2022-12-10T10:38:18;33.60;;;25.80;;
966;SDS011;56108;48.730;9.304;2022-12-10T10:40:33;29.10;;;24.70;;
966;SDS011;56108;48.730;9.304;2022-12-10T10:42:48;32.65;;;25.80;;
966;SDS011;56108;48.730;9.304;2022-12-10T10:44:59;31.27;;;25.52;;
966;SDS011;56108;48.730;9.304;2022-12-10T10:47:24;33.30;;;26.17;;
966;SDS011;56108;48.730;9.304;2022-12-10T10:49:39;33.47;;;25.92;;
966;SDS011;56108;48.730;9.304;2022-12-10T10:51:52;31.25;;;24.98;;
966;SDS011;56108;48.730;9.304;2022-12-10T10:54:01;29.33;;;23.88;;
966;SDS011;56108;48.730;9.304;2022-12-10T10:56:15;33.33;;;25.58;;
966;SDS011;56108;48.730;9.304;2022-12-10T10:58:27;30.38;;;24.15;;
966;SDS011;56108;48.730;9.304;2022-12-10T11:00:35;31.13;;;24.85;;
966;SDS011;56108;48.730;9.304;2022-12-10T11:02:43;29.15;;;22.60;;
966;SDS011;56108;48.730;9.304;2022-12-10T11:04:53;30.00;;;23.23;;
966;SDS011;56108;48.730;9.304;2022-12-10T11:07:04;29.65;;;23.50;;
966;SDS011;56108;48.730;9.304;2022-12-10T11:09:21;28.92;;;24.00;;
966;SDS011;56108;48.730;9.304;2022-12-10T11:11:39;30.92;;;23.83;;
966;SDS011;56108;48.730;9.304;2022-12-10T11:13:48;30.08;;;23.13;;
966;SDS011;56108;48.730;9.304;2022-12-10T11:15:58;33.42;;;25.25;;
966;SDS011;56108;48.730;9.304;2022-12-10T11:18:22;29.88;;;23.85;;
966;SDS011;56108;48.730;9.304;2022-12-10T11:20:33;30.67;;;24.33;;
966;SDS011;56108;48.730;9.304;2022-12-10T11:22:50;33.13;;;23.98;;
966;SDS011;56108;48.730;9.304;2022-12-10T11:24:59;29.05;;;23.45;;
966;SDS011;56108;48.730;9.304;2022-12-10T11:27:11;28.75;;;23.98;;
966;SDS011;56108;48.730;9.304;2022-12-10T11:29:28;29.83;;;23.27;;
966;SDS011;56108;48.730;9.304;2022-12-10T11:31:58;27.92;;;22.83;;
966;SDS011;56108;48.730;9.304;2022-12-10T11:34:19;27.60;;;22.25;;
966;SDS011;56108;48.730;9.304;2022-12-10T11:36:35;29.38;;;22.10;;
966;SDS011;56108;48.730;9.304;2022-12-10T11:38:50;27.45;;;21.55;;
966;SDS011;56108;48.730;9.304;2022-12-10T11:41:12;26.33;;;21.23;;
966;SDS011;56108;48.730;9.304;2022-12-10T11:43:33;29.85;;;22.27;;
966;SDS011;56108;48.730;9.304;2022-12-10T11:45:56;29.17;;;22.23;;
966;SDS011;56108;48.730;9.304;2022-12-10T11:48:32;34.88;;;24.73;;
966;SDS011;56108;48.730;9.304;2022-12-10T11:50:52;34.00;;;24.98;;
966;SDS011;56108;48.730;9.304;2022-12-10T11:53:13;32.92;;;25.70;;
966;SDS011;56108;48.730;9.304;2022-12-10T11:55:47;31.38;;;24.48;;
966;SDS011;56108;48.730;9.304;2022-12-10T11:58:03;34.70;;;24.88;;
966;SDS011;56108;48.730;9.304;2022-12-10T12:00:35;34.08;;;27.02;;
966;SDS011;56108;48.730;9.304;2022-12-10T12:02:58;29.50;;;25.38;;
966;SDS011;56108;48.730;9.304;2022-12-10T12:05:28;32.55;;;24.65;;
966;SDS011;56108;48.730;9.304;2022-12-10T12:07:49;30.13;;;24.80;;
966;SDS011;56108;48.730;9.304;2022-12-10T12:10:13;29.00;;;24.02;;
966;SDS011;56108;48.730;9.304;2022-12-10T12:12:58;29.83;;;23.52;;
966;SDS011;56108;48.730;9.304;2022-12-10T12:15:13;30.27;;;23.88;;
966;SDS011;56108;48.730;9.304;2022-12-10T12:17:32;31.40;;;23.35;;
966;SDS011;56108;48.730;9.304;2022-12-10T12:19:46;29.27;;;23.27;;
966;SDS011;56108;48.730;9.304;2022-12-10T12:21:57;33.50;;;25.23;;
966;SDS011;56108;48.730;9.304;2022-12-10T12:24:18;28.85;;;23.67;;
966;SDS011;56108;48.730;9.304;2022-12-10T12:26:29;30.10;;;24.05;;
966;SDS011;56108;48.730;9.304;2022-12-10T12:28:43;30.63;;;25.15;;
966;SDS011;56108;48.730;9.304;2022-12-10T12:30:57;27.55;;;22.80;;
966;SDS011;56108;48.730;9.304;2022-12-10T12:33:13;32.63;;;25.13;;
966;SDS011;56108;48.730;9.304;2022-12-10T12:35:30;34.72;;;24.77;;
966;SDS011;56108;48.730;9.304;2022-12-10T12:37:46;27.05;;;23.05;;
966;SDS011;56108;48.730;9.304;2022-12-10T12:40:02;30.80;;;23.65;;
966;SDS011;56108;48.730;9.304;2022-12-10T12:42:21;28.80;;;23.30;;
966;SDS011;56108;48.730;9.304;2022-12-10T12:44:36;31.05;;;22.25;;
966;SDS011;56108;48.730;9.304;2022-12-10T12:46:53;29.70;;;23.40;;
966;SDS011;56108;48.730;9.304;2022-12-10T12:49:06;31.45;;;22.60;;
966;SDS011;56108;48.730;9.304;2022-12-10T12:51:21;29.05;;;23.50;;
966;SDS011;56108;48.730;9.304;2022-12-10T12:53:34;28.58;;;22.40;;
966;SDS011;56108;48.730;9.304;2022-12-10T12:55:52;27.50;;;22.92;;
966;SDS011;56108;48.730;9.304;2022-12-10T12:58:16;25.55;;;21.23;;
966;SDS011;56108;48.730;9.304;2022-12-10T13:00:30;28.98;;;22.05;;
966;SDS011;56108;48.730;9.304;2022-12-10T13:02:44;26.63;;;20.42;;
966;SDS011;56108;48.730;9.304;2022-12-10T13:05:03;29.17;;;22.60;;
966;SDS011;56108;48.730;9.304;2022-12-10T13:09:42;26.35;;;20.27;;
966;SDS011;56108;48.730;9.304;2022-12-10T13:14:34;27.75;;;21.90;;
966;SDS011;56108;48.730;9.304;2022-12-10T13:16:47;25.27;;;21.42;;
966;SDS011;56108;48.730;9.304;2022-12-10T13:21:34;24.73;;;19.45;;
966;SDS011;56108;48.730;9.304;2022-12-10T13:23:49;27.10;;;21.98;;